Time;durP1;ratioP1;P1;durP2;ratioP2;P2;SDS_P1;SDS_P2;PMS_P1;PMS_P2;Temp;Humidity;BMP_temperature;BMP_pressure;BME280_temperature;BME280_humidity;BME280_pressure;Samples;Min_cycle;Max_cycle;Signal;HPM_P1;HPM_P2
2021/10/20 00:01:37;;;;;;;19.00;12.10;;;;;;;10.00;72.50;100222.44;114739;1193;93278;-76
2021/10/20 00:04:24;;;;;;;19.50;12.50;;;;;;;10.03;72.42;100218.02;114683;1193;139088;-75
2021/10/20 00:07:12;;;;;;;19.50;11.20;;;;;;;10.06;72.38;100213.23;114821;1193;108902;-75
2021/10/20 00:09:58;;;;;;;;;;;;;;;10.07;72.31;100212.70;114649;1193;137603;-74
2021/10/20 00:12:48;;;;;;;17.50;11.50;;;;;;;10.08;72.26;100202.95;114755;1193;108586;-74
2021/10/20 00:15:35;;;;;;;18.60;12.10;;;;;;;10.10;72.17;100200.61;114645;1194;94008;-74
2021/10/20 00:18:22;;;;;;;16.50;11.30;;;;;;;10.13;72.03;100195.98;114657;1193;138525;-74
2021/10/20 00:21:09;;;;;;;14.10;11.30;;;;;;;10.15;72.01;100193.67;114720;1193;109368;-75
2021/10/20 00:23:56;;;;;;;17.00;11.70;;;;;;;10.16;71.92;100186.87;114626;1193;138406;-75
2021/10/20 00:26:42;;;;;;;17.60;11.40;;;;;;;10.17;71.91;100186.83;114715;1193;107963;-76
2021/10/20 00:29:29;;;;;;;16.80;12.10;;;;;;;10.21;71.82;100182.73;114585;1187;137786;-76
2021/10/20 00:32:16;;;;;;;16.50;11.70;;;;;;;10.22;71.81;100174.71;114732;1193;93364;-75
2021/10/20 00:35:05;;;;;;;16.80;11.20;;;;;;;10.23;71.68;100175.02;114676;1193;137230;-75
2021/10/20 00:37:52;;;;;;;15.50;11.00;;;;;;;10.22;71.68;100165.66;114733;1194;108901;-76
2021/10/20 00:40:38;;;;;;;18.10;11.80;;;;;;;10.24;71.57;100158.48;114547;1194;138215;-76
2021/10/20 00:43:25;;;;;;;19.20;11.80;;;;;;;10.27;71.55;100154.06;114755;1193;92948;-76
2021/10/20 00:46:24;;;;;;;17.80;11.90;;;;;;;10.29;71.57;100154.33;114631;1193;137410;-76
2021/10/20 00:49:11;;;;;;;20.90;12.40;;;;;;;10.33;71.57;100148.16;114745;1193;106371;-76
2021/10/20 00:51:58;;;;;;;15.70;11.00;;;;;;;10.34;71.56;100141.85;114699;1193;138645;-74
2021/10/20 00:54:45;;;;;;;15.70;11.00;;;;;;;10.36;71.47;100132.04;114723;1193;108449;-76
2021/10/20 00:57:32;;;;;;;18.00;12.00;;;;;;;10.37;71.35;100130.80;114643;1195;93657;-75
2021/10/20 01:00:19;;;;;;;20.00;12.40;;;;;;;10.37;71.43;100122.95;114637;1193;137423;-77
2021/10/20 01:03:06;;;;;;;16.00;11.50;;;;;;;10.37;71.40;100121.92;114758;1193;108286;-76
2021/10/20 01:05:53;;;;;;;17.80;12.20;;;;;;;10.38;71.30;100120.85;114435;1195;136997;-76
2021/10/20 01:08:40;;;;;;;16.40;11.60;;;;;;;10.38;71.50;100118.92;114744;1193;108619;-76
2021/10/20 01:11:27;;;;;;;19.40;11.60;;;;;;;10.39;71.46;100111.94;114677;1193;137894;-76
2021/10/20 01:14:15;;;;;;;15.20;11.10;;;;;;;10.40;71.39;100113.31;114767;1193;93084;-76
2021/10/20 01:17:02;;;;;;;15.00;10.70;;;;;;;10.40;71.49;100115.21;114603;1195;138015;-76
2021/10/20 01:19:49;;;;;;;18.50;12.20;;;;;;;10.42;71.36;100107.35;114792;1193;107450;-76
2021/10/20 01:22:36;;;;;;;15.80;11.60;;;;;;;10.44;71.43;100105.20;114666;1193;137731;-76
2021/10/20 01:25:23;;;;;;;15.20;10.60;;;;;;;10.46;71.39;100097.30;114732;1193;93378;-75
2021/10/20 01:28:09;;;;;;;14.30;10.90;;;;;;;10.47;71.37;100095.19;114630;1193;137628;-75
2021/10/20 01:30:56;;;;;;;15.80;11.20;;;;;;;10.49;71.30;100085.55;113820;1193;108614;-76
2021/10/20 01:33:43;;;;;;;14.00;10.50;;;;;;;10.52;71.34;100086.98;113357;1193;108947;-75
2021/10/20 01:36:31;;;;;;;15.10;11.10;;;;;;;10.54;71.25;100083.10;113270;1193;137341;-76
2021/10/20 01:39:18;;;;;;;;;;;;;;;10.55;71.28;100078.90;113330;1195;94850;-76
2021/10/20 01:42:06;;;;;;;15.00;10.20;;;;;;;10.54;71.40;100078.73;113670;1193;126064;-75
2021/10/20 01:44:53;;;;;;;18.10;10.10;;;;;;;10.55;71.36;100077.67;113324;1193;109590;-76
2021/10/20 01:47:40;;;;;;;;;;;;;;;10.55;71.24;100083.73;114676;1193;138246;-76
2021/10/20 01:50:28;;;;;;;15.10;10.40;;;;;;;10.56;71.34;100079.88;114748;1193;107648;-77
2021/10/20 01:53:15;;;;;;;14.50;10.70;;;;;;;10.58;71.44;100074.44;114658;1193;138689;-75
2021/10/20 01:56:03;;;;;;;19.10;10.90;;;;;;;10.59;71.13;100070.92;114723;1193;94499;-75
2021/10/20 01:58:50;;;;;;;16.50;9.80;;;;;;;10.62;71.29;100072.94;114636;1193;138307;-76
2021/10/20 02:01:36;;;;;;;15.00;10.50;;;;;;;10.67;71.14;100072.05;114758;1193;108530;-76
2021/10/20 02:04:23;;;;;;;14.80;10.20;;;;;;;10.71;71.21;100068.23;114565;1193;137753;-76
2021/10/20 02:07:10;;;;;;;14.80;10.90;;;;;;;10.73;71.41;100068.16;114762;1193;94564;-76
2021/10/20 02:09:57;;;;;;;14.30;10.40;;;;;;;10.75;71.52;100063.40;114764;1193;94418;-76
2021/10/20 02:12:44;;;;;;;11.30;9.00;;;;;;;10.78;71.54;100054.61;114591;1193;138735;-76
2021/10/20 02:15:30;;;;;;;13.70;10.10;;;;;;;10.81;71.44;100053.82;114745;1193;107771;-75
2021/10/20 02:18:17;;;;;;;;;;;;;;;10.84;71.65;100049.35;114650;1193;137623;-76
2021/10/20 02:21:05;;;;;;;15.00;10.10;;;;;;;10.85;71.71;100042.49;114746;1193;94766;-75
2021/10/20 02:23:52;;;;;;;15.80;9.90;;;;;;;10.83;71.84;100033.91;114615;1193;137917;-75
2021/10/20 02:26:39;;;;;;;13.10;9.90;;;;;;;10.81;71.92;100038.31;114722;1193;110168;-76
2021/10/20 02:29:25;;;;;;;15.20;10.70;;;;;;;10.83;72.00;100034.60;114655;1193;137635;-76
2021/10/20 02:32:12;;;;;;;15.20;10.90;;;;;;;10.84;72.29;100035.80;114730;1193;108434;-75
2021/10/20 02:34:59;;;;;;;16.30;10.90;;;;;;;10.80;72.57;100044.64;114612;1193;138432;-76
2021/10/20 02:37:47;;;;;;;13.00;9.90;;;;;;;10.76;72.66;100050.33;114718;1193;94881;-76
2021/10/20 02:40:34;;;;;;;15.40;10.10;;;;;;;10.73;72.79;100042.08;114629;1193;138005;-75
2021/10/20 02:43:21;;;;;;;12.50;9.80;;;;;;;10.72;73.18;100039.85;114735;1193;107615;-76
2021/10/20 02:46:08;;;;;;;;;;;;;;;10.69;73.40;100017.71;114678;1193;107588;-76
2021/10/20 02:48:55;;;;;;;14.60;9.90;;;;;;;10.65;73.87;100017.52;114611;1193;123484;-75
2021/10/20 02:51:42;;;;;;;17.40;11.40;;;;;;;10.58;74.09;100014.81;114698;1193;94608;-76
2021/10/20 02:54:29;;;;;;;15.20;10.70;;;;;;;10.57;74.14;100016.58;114609;1193;137870;-75
2021/10/20 02:57:16;;;;;;;17.40;11.50;;;;;;;10.55;74.63;100010.90;114804;1193;108498;-77
2021/10/20 03:00:04;;;;;;;14.60;10.80;;;;;;;10.50;74.57;100007.10;114601;1193;138308;-76
2021/10/20 03:02:51;;;;;;;14.00;10.20;;;;;;;10.49;74.75;100009.74;114701;1193;94364;-76
2021/10/20 03:05:38;;;;;;;14.10;10.70;;;;;;;10.48;74.79;100006.67;114631;1193;138225;-76
2021/10/20 03:08:25;;;;;;;13.00;10.50;;;;;;;10.45;74.87;100006.59;114776;1193;111195;-77
2021/10/20 03:11:12;;;;;;;15.70;10.50;;;;;;;10.39;75.42;99997.57;114608;1193;137717;-76
2021/10/20 03:13:58;;;;;;;15.70;11.10;;;;;;;10.37;75.45;99994.02;114745;1193;108403;-77
2021/10/20 03:16:45;;;;;;;13.30;10.70;;;;;;;10.33;75.73;99983.73;114688;1193;138491;-75
2021/10/20 03:19:32;;;;;;;15.70;11.90;;;;;;;10.28;76.05;99972.44;114778;1194;94659;-76
2021/10/20 03:22:20;;;;;;;13.70;10.50;;;;;;;10.23;76.45;99972.79;114797;1193;110834;-76
2021/10/20 03:25:09;;;;;;;16.20;11.20;;;;;;;10.20;76.41;99966.59;114660;1193;139005;-77
2021/10/20 03:27:55;;;;;;;16.00;11.60;;;;;;;10.20;76.35;99967.98;114768;1193;108415;-76
2021/10/20 03:30:42;;;;;;;14.00;11.00;;;;;;;10.21;76.36;99966.73;114596;1194;138018;-75
2021/10/20 03:33:29;;;;;;;14.10;10.60;;;;;;;10.19;76.72;99967.83;114789;1193;95285;-77
2021/10/20 03:36:15;;;;;;;15.00;11.00;;;;;;;10.19;76.57;99965.41;114690;1193;139649;-76
2021/10/20 03:39:03;;;;;;;14.40;10.80;;;;;;;10.21;76.75;99961.35;114714;1195;110310;-76
2021/10/20 03:41:49;;;;;;;16.20;11.20;;;;;;;10.22;76.65;99960.45;114625;1193;137910;-76
2021/10/20 03:44:36;;;;;;;14.30;10.00;;;;;;;10.24;76.72;99958.34;114775;1193;94784;-77
2021/10/20 03:47:23;;;;;;;12.90;9.90;;;;;;;10.25;76.51;99955.85;114732;1193;138065;-76
2021/10/20 03:50:10;;;;;;;15.60;10.70;;;;;;;10.28;76.55;99949.64;114772;1193;110935;-76
2021/10/20 03:52:57;;;;;;;14.90;10.40;;;;;;;10.32;76.42;99955.63;114697;1193;137485;-76
2021/10/20 03:55:44;;;;;;;15.00;9.70;;;;;;;10.35;76.24;99954.29;114786;1193;108760;-76
2021/10/20 03:58:30;;;;;;;13.80;10.20;;;;;;;10.41;76.17;99954.94;114887;1192;94967;-76
2021/10/20 04:01:17;;;;;;;14.60;10.50;;;;;;;10.46;76.01;99953.19;114937;1192;138831;-76
2021/10/20 04:04:04;;;;;;;16.40;10.10;;;;;;;10.51;75.85;99956.31;115089;1192;109859;-76
2021/10/20 04:06:50;;;;;;;15.60;10.10;;;;;;;10.54;75.74;99949.41;114790;1192;137445;-76
2021/10/20 04:09:37;;;;;;;13.30;9.30;;;;;;;10.58;75.64;99943.34;114987;1192;107446;-76
2021/10/20 04:12:23;;;;;;;10.90;9.40;;;;;;;10.64;75.66;99940.19;115031;1192;138398;-75
2021/10/20 04:15:13;;;;;;;15.80;10.10;;;;;;;10.66;75.83;99932.80;115146;1192;94593;-76
2021/10/20 04:18:00;;;;;;;12.20;9.10;;;;;;;10.66;75.81;99920.98;114948;1192;137604;-77
2021/10/20 04:20:46;;;;;;;12.20;9.20;;;;;;;10.68;76.12;99912.73;115101;1192;108679;-76
2021/10/20 04:23:33;;;;;;;13.70;9.70;;;;;;;10.68;75.97;99916.05;114935;1192;138045;-76
2021/10/20 04:26:20;;;;;;;12.10;8.80;;;;;;;10.67;76.07;99912.59;114997;1193;94555;-76
2021/10/20 04:29:07;;;;;;;12.90;9.20;;;;;;;10.69;76.21;99904.88;114951;1192;137690;-76
2021/10/20 04:31:53;;;;;;;15.60;9.50;;;;;;;10.71;75.85;99902.37;115085;1192;110759;-76
2021/10/20 04:34:40;;;;;;;13.60;9.70;;;;;;;10.72;75.99;99899.02;115090;1192;108697;-76
2021/10/20 04:37:27;;;;;;;13.70;9.40;;;;;;;10.73;76.01;99896.36;114921;1192;137935;-77
2021/10/20 04:40:14;;;;;;;11.50;9.40;;;;;;;10.74;75.95;99901.03;115102;1192;94851;-76
2021/10/20 04:43:01;;;;;;;11.40;8.60;;;;;;;10.75;75.85;99891.73;114970;1192;138097;-76
2021/10/20 04:45:47;;;;;;;11.40;8.60;;;;;;;10.78;75.65;99893.56;114952;1192;110790;-76
2021/10/20 04:48:34;;;;;;;10.90;8.80;;;;;;;10.80;75.52;99891.22;114860;1193;137444;-76
2021/10/20 04:51:21;;;;;;;11.10;7.70;;;;;;;10.84;75.47;99888.45;114956;1192;108448;-76
2021/10/20 04:54:08;;;;;;;11.80;8.20;;;;;;;10.86;75.25;99886.27;114883;1192;137925;-76
2021/10/20 04:56:55;;;;;;;11.40;8.30;;;;;;;10.90;75.29;99879.88;115013;1192;94523;-77
2021/10/20 04:59:41;;;;;;;10.10;8.20;;;;;;;10.93;75.10;99881.85;114911;1192;139035;-77
2021/10/20 05:02:34;;;;;;;10.20;8.00;;;;;;;10.95;75.02;99875.70;114991;1192;108759;-77
2021/10/20 05:05:21;;;;;;;10.00;7.70;;;;;;;11.00;75.08;99871.66;114694;1192;138064;-76
2021/10/20 05:08:08;;;;;;;10.60;8.00;;;;;;;11.04;74.78;99867.66;115015;1192;94428;-76
2021/10/20 05:10:57;;;;;;;12.60;8.50;;;;;;;11.09;74.86;99864.83;114861;1193;94906;-76
2021/10/20 05:13:44;;;;;;;9.90;7.80;;;;;;;11.10;74.67;99861.86;113551;1192;137684;-77
2021/10/20 05:16:31;;;;;;;9.30;7.20;;;;;;;11.11;74.60;99855.21;113311;1193;107780;-76
2021/10/20 05:19:18;;;;;;;12.50;8.20;;;;;;;11.13;74.55;99856.52;113548;1192;137384;-76
2021/10/20 05:22:08;;;;;;;;;;;;;;;11.12;74.58;99856.20;114984;1192;94628;-76
2021/10/20 05:24:54;;;;;;;10.30;6.90;;;;;;;11.13;74.70;99849.21;114841;1192;124619;-76
2021/10/20 05:27:42;;;;;;;11.50;7.10;;;;;;;11.16;74.74;99849.95;114943;1192;110853;-76
2021/10/20 05:30:28;;;;;;;10.40;6.70;;;;;;;11.22;74.75;99847.61;114740;1192;138777;-76
2021/10/20 05:33:15;;;;;;;10.20;7.40;;;;;;;11.29;74.58;99849.79;115088;1192;108014;-76
2021/10/20 05:36:02;;;;;;;14.20;7.30;;;;;;;11.34;74.55;99849.40;115006;1192;137371;-75
2021/10/20 05:38:49;;;;;;;;;;;;;;;11.38;74.47;99849.94;115090;1192;95209;-76
2021/10/20 05:41:36;;;;;;;10.70;6.70;;;;;;;11.42;74.43;99850.97;114962;1192;124226;-76
2021/10/20 05:44:23;;;;;;;10.70;7.00;;;;;;;11.47;74.42;99849.34;115101;1192;107701;-76
2021/10/20 05:47:10;;;;;;;9.50;6.60;;;;;;;11.53;74.35;99851.04;115070;1192;107666;-76
2021/10/20 05:49:56;;;;;;;11.30;7.00;;;;;;;11.57;74.31;99844.59;114906;1192;138288;-76
2021/10/20 05:52:43;;;;;;;10.30;6.60;;;;;;;11.60;74.35;99844.48;114950;1192;94498;-76
2021/10/20 05:55:30;;;;;;;9.90;7.60;;;;;;;11.62;74.38;99846.98;114888;1192;139258;-74
2021/10/20 05:58:16;;;;;;;11.50;7.40;;;;;;;11.66;74.44;99842.09;115020;1192;108537;-74
2021/10/20 06:01:03;;;;;;;9.20;6.90;;;;;;;11.69;74.53;99836.59;114912;1192;137463;-73
2021/10/20 06:03:50;;;;;;;11.10;7.60;;;;;;;11.71;74.60;99833.88;115054;1192;94893;-75
2021/10/20 06:06:37;;;;;;;10.80;6.80;;;;;;;11.75;74.77;99832.50;115001;1192;139301;-74
2021/10/20 06:09:23;;;;;;;11.90;6.60;;;;;;;11.77;74.73;99836.75;115008;1192;110841;-74
2021/10/20 06:12:10;;;;;;;10.70;7.70;;;;;;;11.79;74.93;99831.64;115036;1192;138833;-74
2021/10/20 06:14:57;;;;;;;10.50;7.10;;;;;;;11.80;75.30;99833.16;114835;1192;108462;-74
2021/10/20 06:17:44;;;;;;;9.70;7.40;;;;;;;11.81;75.25;99843.40;113315;1193;137580;-75
2021/10/20 06:20:31;;;;;;;11.90;7.10;;;;;;;11.81;75.57;99833.48;113841;1192;96153;-73
2021/10/20 06:23:18;;;;;;;8.80;7.10;;;;;;;11.80;75.71;99835.25;113339;1193;110781;-71
2021/10/20 06:26:05;;;;;;;10.50;7.90;;;;;;;11.78;76.00;99831.84;113656;1192;136874;-69
2021/10/20 06:28:53;;;;;;;9.60;7.70;;;;;;;11.79;76.07;99829.71;113692;1192;108907;-73
2021/10/20 06:31:39;;;;;;;10.50;7.60;;;;;;;11.84;76.08;99834.77;114921;1192;138846;-74
2021/10/20 06:34:26;;;;;;;11.10;8.10;;;;;;;11.86;76.24;99834.16;114885;1192;94579;-75
2021/10/20 06:37:13;;;;;;;11.60;7.30;;;;;;;11.87;76.38;99827.32;114911;1192;137055;-74
2021/10/20 06:40:01;;;;;;;9.00;7.40;;;;;;;11.87;76.47;99829.21;115076;1192;108537;-74
2021/10/20 06:42:47;;;;;;;12.70;8.30;;;;;;;11.88;76.82;99826.58;114914;1184;137623;-74
2021/10/20 06:45:35;;;;;;;13.10;8.00;;;;;;;11.90;76.67;99828.38;115031;1192;94621;-75
2021/10/20 06:48:22;;;;;;;10.40;7.40;;;;;;;11.95;76.88;99829.02;114835;1192;138139;-75
2021/10/20 06:51:09;;;;;;;10.90;7.40;;;;;;;11.98;77.05;99822.10;114782;1193;110826;-75
2021/10/20 06:53:56;;;;;;;11.10;7.70;;;;;;;12.02;77.22;99821.02;114681;1192;137329;-75
2021/10/20 06:56:50;;;;;;;;;;;;;;;12.06;77.20;99820.54;115059;1192;108527;-76
2021/10/20 06:59:41;;;;;;;9.20;6.70;;;;;;;12.09;77.38;99814.26;115038;1192;94471;-75
2021/10/20 07:02:27;;;;;;;10.70;8.00;;;;;;;12.12;77.56;99807.34;115097;1192;95241;-75
2021/10/20 07:05:14;;;;;;;12.30;8.80;;;;;;;12.15;77.79;99806.02;114816;1192;110885;-75
2021/10/20 07:08:00;;;;;;;10.80;7.70;;;;;;;12.15;77.72;99804.07;115003;1192;137749;-75
2021/10/20 07:10:47;;;;;;;10.50;7.20;;;;;;;12.15;77.71;99806.33;115066;1192;107712;-75
2021/10/20 07:13:39;;;;;;;10.90;7.40;;;;;;;12.19;77.80;99793.09;114912;1192;138434;-75
2021/10/20 07:16:26;;;;;;;10.60;7.90;;;;;;;12.23;77.84;99800.77;115035;1192;94482;-75
2021/10/20 07:19:17;;;;;;;12.80;7.50;;;;;;;12.28;77.92;99807.31;114766;1192;138175;-74
2021/10/20 07:22:05;;;;;;;15.40;8.20;;;;;;;12.31;77.77;99802.11;114846;1192;108431;-75
2021/10/20 07:24:51;;;;;;;9.10;7.00;;;;;;;12.35;77.80;99798.92;114716;1184;138583;-74
2021/10/20 07:27:38;;;;;;;12.40;7.10;;;;;;;12.41;77.86;99799.06;114720;1193;94463;-75
2021/10/20 07:30:25;;;;;;;9.60;7.20;;;;;;;12.49;77.81;99796.92;115029;1192;137598;-75
2021/10/20 07:33:12;;;;;;;12.00;7.40;;;;;;;12.56;77.80;99795.71;114793;1192;110988;-75
2021/10/20 07:35:58;;;;;;;11.70;7.70;;;;;;;12.60;77.72;99794.84;115010;1192;109180;-74
2021/10/20 07:38:48;;;;;;;10.10;7.20;;;;;;;12.67;77.48;99783.30;114951;1192;138440;-74
2021/10/20 07:41:35;;;;;;;10.10;7.50;;;;;;;12.77;77.25;99793.46;114968;1192;94653;-73
2021/10/20 07:44:22;;;;;;;9.10;7.00;;;;;;;12.90;77.10;99788.48;114972;1192;136020;-73
2021/10/20 07:47:09;;;;;;;9.50;6.90;;;;;;;13.00;76.72;99783.81;115055;1192;110801;-74
2021/10/20 07:49:56;;;;;;;11.00;7.30;;;;;;;13.08;76.39;99779.38;114976;1192;141540;-74
2021/10/20 07:52:47;;;;;;;10.20;7.80;;;;;;;13.13;76.16;99780.02;115021;1192;108349;-74
2021/10/20 07:55:35;;;;;;;10.40;7.20;;;;;;;13.14;75.87;99782.95;114671;1192;137148;-75
2021/10/20 07:58:22;;;;;;;10.80;6.80;;;;;;;13.16;75.80;99773.43;115109;1192;94593;-74
2021/10/20 08:01:11;;;;;;;10.90;7.50;;;;;;;13.18;75.53;99769.50;114736;1192;137878;-73
2021/10/20 08:03:58;;;;;;;9.70;7.00;;;;;;;13.22;75.41;99766.11;114401;1192;108692;-73
2021/10/20 08:06:45;;;;;;;10.80;7.10;;;;;;;13.32;75.44;99763.73;114549;1192;138008;-74
2021/10/20 08:09:32;;;;;;;9.30;6.60;;;;;;;13.47;75.01;99762.27;115023;1192;94402;-74
2021/10/20 08:12:19;;;;;;;9.60;7.10;;;;;;;13.59;74.76;99761.23;115031;1192;94660;-74
2021/10/20 08:15:08;;;;;;;8.10;6.70;;;;;;;13.72;74.31;99757.96;115054;1192;112325;-74
2021/10/20 08:17:56;;;;;;;9.20;7.40;;;;;;;13.85;73.88;99757.77;114799;1193;108543;-74
2021/10/20 08:20:43;;;;;;;7.20;5.60;;;;;;;13.98;73.54;99755.52;114916;1192;137844;-74
2021/10/20 08:23:30;;;;;;;10.00;6.40;;;;;;;14.07;72.91;99752.75;115081;1192;94397;-74
2021/10/20 08:26:17;;;;;;;7.30;6.00;;;;;;;14.15;72.71;99755.11;114166;1192;137480;-73
2021/10/20 08:29:04;;;;;;;9.30;6.70;;;;;;;14.28;72.49;99749.70;113808;1192;110805;-74
2021/10/20 08:31:51;;;;;;;8.60;6.80;;;;;;;14.43;71.91;99747.45;114611;1193;137041;-75
2021/10/20 08:34:37;;;;;;;9.10;6.20;;;;;;;14.48;71.17;99749.12;114807;1193;108517;-74
2021/10/20 08:37:24;;;;;;;6.90;5.40;;;;;;;14.49;71.16;99738.52;114660;1193;137486;-74
2021/10/20 08:40:12;;;;;;;7.60;6.10;;;;;;;14.59;70.81;99734.17;114066;1192;96175;-74
2021/10/20 08:43:00;;;;;;;9.10;6.30;;;;;;;14.80;70.72;99735.58;114871;1192;137001;-76
2021/10/20 08:45:48;;;;;;;11.70;6.80;;;;;;;15.10;69.97;99727.86;115031;1192;109653;-73
2021/10/20 08:48:35;;;;;;;8.40;6.50;;;;;;;15.36;69.53;99727.19;114997;1192;108449;-74
2021/10/20 08:51:24;;;;;;;9.40;6.00;;;;;;;15.63;69.14;99714.02;114868;1192;137215;-74
2021/10/20 08:54:12;;;;;;;7.30;6.30;;;;;;;15.94;68.33;99706.96;115084;1192;94665;-74
2021/10/20 08:56:59;;;;;;;9.90;6.30;;;;;;;16.27;67.72;99700.20;113758;1193;137262;-73
2021/10/20 08:59:46;;;;;;;9.80;6.40;;;;;;;16.42;65.46;99700.76;113696;1193;108882;-73
2021/10/20 09:02:38;;;;;;;11.70;6.50;;;;;;;16.43;65.70;99705.45;113661;1192;137211;-73
2021/10/20 09:05:29;;;;;;;7.60;6.20;;;;;;;16.51;65.56;99703.36;113729;1192;96244;-72
2021/10/20 09:08:16;;;;;;;8.90;6.00;;;;;;;16.70;65.53;99700.37;113721;1192;136965;-74
2021/10/20 09:11:18;;;;;;;7.80;6.00;;;;;;;16.98;64.65;99699.54;113299;1193;111834;-73
2021/10/20 09:14:11;;;;;;;8.40;6.30;;;;;;;17.26;64.08;99694.33;113695;1192;137024;-73
2021/10/20 09:17:02;;;;;;;7.70;5.70;;;;;;;17.33;62.44;99689.92;114564;1192;108857;-72
2021/10/20 09:19:50;;;;;;;10.00;6.50;;;;;;;17.35;62.72;99694.56;114757;1192;136986;-75
2021/10/20 09:22:53;;;;;;;10.40;6.30;;;;;;;17.58;63.06;99691.94;115077;1192;94731;-74
2021/10/20 09:25:51;;;;;;;8.50;5.00;;;;;;;17.80;61.78;99691.58;114731;1192;137894;-72
2021/10/20 09:28:39;;;;;;;8.80;6.10;;;;;;;17.75;61.30;99686.19;115090;1192;107445;-74
2021/10/20 09:31:45;;;;;;;7.20;5.80;;;;;;;17.69;60.81;99689.38;114670;1192;137859;-74
2021/10/20 09:34:34;;;;;;;7.40;5.90;;;;;;;17.66;61.18;99685.03;115026;1192;94556;-73
2021/10/20 09:37:21;;;;;;;7.30;5.60;;;;;;;17.79;62.01;99682.89;114989;1192;137549;-75
2021/10/20 09:40:13;;;;;;;6.50;5.60;;;;;;;17.94;61.38;99689.23;115058;1192;110646;-74
2021/10/20 09:43:00;;;;;;;9.20;5.90;;;;;;;18.01;61.21;99676.53;114583;1192;137175;-72
2021/10/20 09:45:47;;;;;;;8.00;5.70;;;;;;;18.10;60.43;99673.42;115086;1192;107130;-75
2021/10/20 09:48:40;;;;;;;6.90;5.30;;;;;;;18.19;60.54;99668.45;114843;1193;94589;-75
2021/10/20 09:51:27;;;;;;;8.60;5.60;;;;;;;18.37;60.64;99666.73;114683;1192;136657;-75
2021/10/20 09:54:24;;;;;;;7.50;5.50;;;;;;;18.58;60.39;99667.43;115036;1192;111965;-75
2021/10/20 09:57:16;;;;;;;9.10;5.20;;;;;;;18.71;59.85;99656.45;114920;1192;137176;-74
2021/10/20 10:00:04;;;;;;;7.80;5.10;;;;;;;18.70;59.20;99650.36;114761;1193;108519;-74
2021/10/20 10:02:57;;;;;;;6.70;5.50;;;;;;;18.57;59.11;99655.54;113690;1193;137065;-73
2021/10/20 10:05:45;;;;;;;8.20;5.80;;;;;;;18.58;58.56;99654.39;113723;1193;96822;-73
2021/10/20 10:08:32;;;;;;;6.70;5.20;;;;;;;18.47;58.39;99654.69;114885;1192;138080;-79
2021/10/20 10:11:19;;;;;;;7.20;5.70;;;;;;;18.38;59.14;99646.92;114908;1192;110024;-73
2021/10/20 10:14:08;;;;;;;;;;;;;;;18.41;59.16;99639.49;114658;1193;138593;-75
2021/10/20 10:17:00;;;;;;;6.40;5.00;;;;;;;18.49;59.35;99641.39;115024;1192;94585;-76
2021/10/20 10:19:48;;;;;;;7.20;5.20;;;;;;;18.57;59.07;99635.28;114693;1192;136990;-76
2021/10/20 10:22:50;;;;;;;6.40;5.10;;;;;;;18.64;58.50;99632.50;114824;1192;110945;-76
2021/10/20 10:25:39;;;;;;;7.90;5.20;;;;;;;18.69;58.35;99630.90;114020;1192;137326;-79
2021/10/20 10:28:29;;;;;;;9.10;5.20;;;;;;;18.72;58.49;99628.93;113513;1192;108199;-76
2021/10/20 10:31:16;;;;;;;8.40;5.10;;;;;;;18.69;58.07;99622.59;113447;1193;141228;-75
2021/10/20 10:34:03;;;;;;;8.30;4.90;;;;;;;18.66;57.88;99624.04;113614;1193;96252;-75
2021/10/20 10:36:52;;;;;;;7.60;5.20;;;;;;;18.67;58.31;99615.89;113636;1192;110642;-75
2021/10/20 10:39:48;;;;;;;9.60;5.20;;;;;;;18.74;57.75;99613.80;113382;1192;136048;-75
2021/10/20 10:42:36;;;;;;;9.10;5.50;;;;;;;18.71;58.03;99614.00;114901;1192;108375;-76
2021/10/20 10:45:24;;;;;;;8.60;5.60;;;;;;;18.72;58.04;99609.36;114779;1192;137033;-74
2021/10/20 10:48:12;;;;;;;7.80;6.20;;;;;;;18.68;57.88;99608.92;114888;1192;94751;-74
2021/10/20 10:50:59;;;;;;;8.00;5.70;;;;;;;18.66;57.38;99604.71;114772;1192;136810;-74
2021/10/20 10:53:52;;;;;;;6.80;5.10;;;;;;;18.66;57.97;99611.40;114846;1192;109016;-75
2021/10/20 10:56:39;;;;;;;8.50;5.70;;;;;;;18.69;57.84;99598.81;114776;1192;137117;-75
2021/10/20 10:59:26;;;;;;;7.50;5.20;;;;;;;18.77;57.52;99594.07;114843;1192;94769;-75
2021/10/20 11:02:38;;;;;;;7.90;5.20;;;;;;;18.78;57.41;99589.72;114744;1191;137970;-74
2021/10/20 11:05:26;;;;;;;9.10;5.40;;;;;;;18.82;57.23;99584.31;114778;1192;109903;-75
2021/10/20 11:08:14;;;;;;;9.20;5.50;;;;;;;18.84;57.31;99588.58;114728;1192;138316;-75
2021/10/20 11:11:03;;;;;;;7.40;5.30;;;;;;;18.84;56.73;99579.05;114876;1192;108676;-75
2021/10/20 11:13:49;;;;;;;8.10;5.60;;;;;;;18.85;56.90;99573.89;114767;1192;139759;-74
2021/10/20 11:16:36;;;;;;;7.30;5.60;;;;;;;18.84;56.78;99572.34;114849;1192;94645;-75
2021/10/20 11:19:24;;;;;;;6.30;5.10;;;;;;;18.82;57.01;99567.55;113642;1192;136996;-73
2021/10/20 11:22:19;;;;;;;6.40;5.30;;;;;;;18.82;56.89;99568.98;113590;1193;107723;-73
2021/10/20 11:25:09;;;;;;;6.80;5.10;;;;;;;18.82;56.92;99567.38;113663;1192;108635;-75
2021/10/20 11:27:58;;;;;;;10.10;5.30;;;;;;;18.84;57.36;99562.48;114485;1193;137359;-74
2021/10/20 11:30:46;;;;;;;6.50;5.60;;;;;;;18.89;57.22;99559.15;114698;1192;94533;-74
2021/10/20 11:33:32;;;;;;;6.40;5.20;;;;;;;18.94;56.79;99556.59;114726;1192;136971;-74
2021/10/20 11:36:20;;;;;;;7.40;5.50;;;;;;;18.99;56.94;99554.29;114852;1192;109144;-74
2021/10/20 11:39:08;;;;;;;7.00;5.20;;;;;;;19.05;56.42;99546.45;114708;1192;137943;-74
2021/10/20 11:42:01;;;;;;;6.00;5.10;;;;;;;19.06;56.19;99540.33;114806;1192;94533;-74
2021/10/20 11:44:47;;;;;;;7.20;4.80;;;;;;;19.06;56.13;99530.33;114738;1192;136967;-74
2021/10/20 11:47:38;;;;;;;6.60;5.30;;;;;;;19.09;56.12;99518.41;114948;1192;112453;-74
2021/10/20 11:50:27;;;;;;;5.90;4.80;;;;;;;19.10;55.66;99516.59;114672;1192;137034;-74
2021/10/20 11:53:14;;;;;;;7.60;5.00;;;;;;;19.09;56.17;99517.57;114658;1193;108730;-75
2021/10/20 11:56:02;;;;;;;7.20;5.70;;;;;;;19.12;55.41;99516.58;114742;1191;137286;-74
2021/10/20 11:58:49;;;;;;;5.90;5.00;;;;;;;19.16;55.40;99515.00;114838;1192;94574;-74
2021/10/20 12:01:35;;;;;;;7.90;5.40;;;;;;;19.20;55.92;99505.00;114705;1192;137053;-74
2021/10/20 12:04:24;;;;;;;7.40;4.50;;;;;;;19.29;55.63;99505.58;114913;1192;108937;-74
2021/10/20 12:07:15;;;;;;;10.60;4.90;;;;;;;19.32;55.40;99501.06;114841;1192;107460;-74
2021/10/20 12:10:05;;;;;;;6.30;4.90;;;;;;;19.40;55.39;99492.67;114547;1193;137439;-76
2021/10/20 12:12:55;;;;;;;8.50;5.80;;;;;;;19.48;54.97;99495.78;114849;1192;94725;-75
2021/10/20 12:15:42;;;;;;;8.50;5.10;;;;;;;19.55;55.20;99495.37;114810;1192;138056;-74
2021/10/20 12:18:30;;;;;;;7.60;5.30;;;;;;;19.61;55.14;99486.93;114691;1192;108647;-74
2021/10/20 12:21:17;;;;;;;8.30;5.10;;;;;;;19.64;55.30;99490.27;114693;1192;138905;-74
2021/10/20 12:24:06;;;;;;;7.20;5.50;;;;;;;19.65;55.24;99482.23;114829;1192;94454;-74
2021/10/20 12:26:55;;;;;;;6.30;4.90;;;;;;;19.72;55.49;99479.47;114730;1193;139379;-74
2021/10/20 12:29:48;;;;;;;7.30;4.80;;;;;;;19.74;55.34;99477.61;114877;1192;109931;-74
2021/10/20 12:32:36;;;;;;;8.90;4.70;;;;;;;19.75;55.49;99465.89;114740;1192;137682;-74
2021/10/20 12:35:23;;;;;;;8.50;5.20;;;;;;;19.75;55.10;99467.98;114788;1192;108361;-75
2021/10/20 12:38:11;;;;;;;;;;;;;;;19.70;55.15;99459.95;114238;1192;137234;-76
2021/10/20 12:41:06;;;;;;;7.90;4.80;;;;;;;19.65;55.43;99457.16;113649;1192;96154;-73
2021/10/20 12:43:55;;;;;;;8.40;5.10;;;;;;;19.60;55.36;99452.09;114760;1192;137896;-75
2021/10/20 12:46:49;;;;;;;11.60;5.60;;;;;;;19.52;55.34;99456.13;114884;1192;109927;-73